createdAt,value
2017-12-12T00:00:50.332Z,977.97
2017-12-12T00:01:50.961Z,977.95
2017-12-12T00:02:51.563Z,978.06
2017-12-12T00:03:52.160Z,978.03
2017-12-12T00:04:52.746Z,978.11
2017-12-12T00:05:53.348Z,978.09
2017-12-12T00:06:53.956Z,978.11
2017-12-12T00:07:54.555Z,978.17
2017-12-12T00:08:55.141Z,978.26
2017-12-12T00:09:55.741Z,978.20
2017-12-12T00:10:56.343Z,978.31
2017-12-12T00:11:56.936Z,978.35
2017-12-12T00:12:57.525Z,978.38
2017-12-12T00:13:58.124Z,978.48
2017-12-12T00:14:58.717Z,978.56
2017-12-12T00:15:59.309Z,978.61
2017-12-12T00:16:59.900Z,978.60
2017-12-12T00:18:00.499Z,978.67
2017-12-12T00:19:01.094Z,978.69
2017-12-12T00:20:01.693Z,978.75
2017-12-12T00:21:02.290Z,978.69
2017-12-12T00:22:02.896Z,978.76
2017-12-12T00:23:03.492Z,978.70
2017-12-12T00:24:04.085Z,978.86
2017-12-12T00:25:04.690Z,978.85
2017-12-12T00:26:05.292Z,978.87
2017-12-12T00:27:05.885Z,978.95
2017-12-12T00:28:06.484Z,978.97
2017-12-12T00:29:07.075Z,979.07
2017-12-12T00:30:07.670Z,979.09
2017-12-12T00:31:08.279Z,979.09
2017-12-12T00:32:08.868Z,979.16
2017-12-12T00:33:09.468Z,979.10
2017-12-12T00:34:10.051Z,979.17
2017-12-12T00:35:10.638Z,979.26
2017-12-12T00:36:11.229Z,979.29
2017-12-12T00:37:11.835Z,979.32
2017-12-12T00:38:12.427Z,979.34
2017-12-12T00:39:13.038Z,979.36
2017-12-12T00:40:13.633Z,979.43
2017-12-12T00:41:14.233Z,979.52
2017-12-12T00:42:14.811Z,979.60
2017-12-12T00:43:15.406Z,979.68
2017-12-12T00:44:16.010Z,979.69
2017-12-12T00:45:16.605Z,979.81
2017-12-12T00:46:17.205Z,979.75
2017-12-12T00:47:17.796Z,979.88
2017-12-12T00:48:18.395Z,979.81
2017-12-12T00:49:18.997Z,979.84
2017-12-12T00:50:19.591Z,979.94
2017-12-12T00:51:20.188Z,979.96
2017-12-12T00:52:20.786Z,980.08
2017-12-12T00:53:21.392Z,980.13
2017-12-12T00:54:21.993Z,980.09
2017-12-12T00:55:22.594Z,980.18
2017-12-12T00:56:23.197Z,980.25
2017-12-12T00:57:23.783Z,980.26
2017-12-12T00:58:24.374Z,980.26
2017-12-12T00:59:24.987Z,980.34
2017-12-12T01:01:09.829Z,980.34
2017-12-12T01:02:10.427Z,980.42
2017-12-12T01:03:11.026Z,980.40
2017-12-12T01:04:11.614Z,980.45
2017-12-12T01:05:12.216Z,980.47
2017-12-12T01:06:12.808Z,980.50
2017-12-12T01:07:13.402Z,980.53
2017-12-12T01:08:14.004Z,980.49
2017-12-12T01:09:14.601Z,980.65
2017-12-12T01:10:15.208Z,980.73
2017-12-12T01:11:15.814Z,980.68
2017-12-12T01:12:16.421Z,980.76
2017-12-12T01:13:17.031Z,980.78
2017-12-12T01:14:17.625Z,980.84
2017-12-12T01:15:18.211Z,980.91
2017-12-12T01:16:18.803Z,980.88
2017-12-12T01:17:19.410Z,981.01
2017-12-12T01:18:20.013Z,981.01
2017-12-12T01:19:20.613Z,980.99
2017-12-12T01:20:21.206Z,981.09
2017-12-12T01:21:21.801Z,981.18
2017-12-12T01:22:22.396Z,981.19
2017-12-12T01:23:22.985Z,981.26
2017-12-12T01:24:23.595Z,981.32
2017-12-12T01:25:24.178Z,981.36
2017-12-12T01:26:24.769Z,981.33
2017-12-12T01:27:25.361Z,981.42
2017-12-12T01:28:25.966Z,981.47
2017-12-12T01:29:26.565Z,981.52
2017-12-12T01:30:27.169Z,981.58
2017-12-12T01:31:27.760Z,981.58
2017-12-12T01:32:28.359Z,981.55
2017-12-12T01:33:28.956Z,981.58
2017-12-12T01:34:29.544Z,981.66
2017-12-12T01:35:30.157Z,981.65
2017-12-12T01:36:30.748Z,981.73
2017-12-12T01:37:31.355Z,981.82
2017-12-12T01:38:31.954Z,981.71
2017-12-12T01:39:32.554Z,981.80
2017-12-12T01:40:33.159Z,981.93
2017-12-12T01:41:33.746Z,981.95
2017-12-12T01:42:34.352Z,982.02
2017-12-12T01:43:34.956Z,981.82
2017-12-12T01:44:35.555Z,982.15
2017-12-12T01:45:36.162Z,982.13
2017-12-12T01:46:36.762Z,982.25
2017-12-12T01:47:37.355Z,982.31
2017-12-12T01:48:37.958Z,982.39
2017-12-12T01:49:38.563Z,982.41
2017-12-12T01:50:39.157Z,982.49
2017-12-12T01:51:39.738Z,982.46
2017-12-12T01:52:40.329Z,982.49
2017-12-12T01:53:40.931Z,982.54
2017-12-12T01:54:41.530Z,982.53
2017-12-12T01:55:42.128Z,982.60
2017-12-12T01:56:42.729Z,982.61
2017-12-12T01:57:43.311Z,982.61
2017-12-12T01:58:43.905Z,982.68
2017-12-12T01:59:44.497Z,982.78
2017-12-12T02:00:45.106Z,982.68
2017-12-12T02:01:45.698Z,982.85
2017-12-12T02:02:46.285Z,982.92
2017-12-12T02:03:46.878Z,982.94
2017-12-12T02:04:47.474Z,983.03
2017-12-12T02:05:48.072Z,983.00
2017-12-12T02:06:48.665Z,983.10
2017-12-12T02:07:49.265Z,983.12
2017-12-12T02:08:49.865Z,983.08
2017-12-12T02:09:50.460Z,983.27
2017-12-12T02:10:51.064Z,983.32
2017-12-12T02:11:51.668Z,983.27
2017-12-12T02:12:52.253Z,983.22
2017-12-12T02:13:52.856Z,983.43
2017-12-12T02:14:53.470Z,983.44
2017-12-12T02:15:54.060Z,983.48
2017-12-12T02:16:54.663Z,983.53
2017-12-12T02:17:55.249Z,983.60
2017-12-12T02:18:55.854Z,983.62
2017-12-12T02:19:56.447Z,983.66
2017-12-12T02:20:57.050Z,983.78
2017-12-12T02:21:57.670Z,983.81
2017-12-12T02:22:58.251Z,983.70
2017-12-12T02:23:58.841Z,983.82
2017-12-12T02:24:59.444Z,983.82
2017-12-12T02:26:00.054Z,983.76
2017-12-12T02:27:00.656Z,983.83
2017-12-12T02:28:01.257Z,983.87
2017-12-12T02:29:01.860Z,983.92
2017-12-12T02:30:02.468Z,984.07
2017-12-12T02:31:03.074Z,984.13
2017-12-12T02:32:03.670Z,984.11
2017-12-12T02:33:04.254Z,984.15
2017-12-12T02:34:04.859Z,984.17
2017-12-12T02:35:05.463Z,984.24
2017-12-12T02:36:06.071Z,984.23
2017-12-12T02:37:06.673Z,984.34
2017-12-12T02:38:07.258Z,984.37
2017-12-12T02:39:07.905Z,984.45
2017-12-12T02:40:08.454Z,984.40
2017-12-12T02:41:09.057Z,984.48
2017-12-12T02:42:09.648Z,984.48
2017-12-12T02:43:10.234Z,984.52
2017-12-12T02:44:10.831Z,984.41
2017-12-12T02:45:11.434Z,984.60
2017-12-12T02:46:12.017Z,984.66
2017-12-12T02:47:12.613Z,984.67
2017-12-12T02:48:13.210Z,984.70
2017-12-12T02:49:13.803Z,984.72
2017-12-12T02:50:14.407Z,984.78
2017-12-12T02:51:14.994Z,984.81
2017-12-12T02:52:15.589Z,984.89
2017-12-12T02:53:16.177Z,984.90
2017-12-12T02:54:16.779Z,984.99
2017-12-12T02:55:17.381Z,984.95
2017-12-12T02:56:17.976Z,985.07
2017-12-12T02:57:19.558Z,985.09
2017-12-12T02:58:20.159Z,985.15
2017-12-12T02:59:20.747Z,985.10
2017-12-12T03:00:21.342Z,985.22
2017-12-12T03:01:21.928Z,985.20
2017-12-12T03:02:22.529Z,985.26
2017-12-12T03:03:23.125Z,985.24
2017-12-12T03:04:23.716Z,985.35
2017-12-12T03:05:24.322Z,985.37
2017-12-12T03:06:24.906Z,985.39
2017-12-12T03:07:25.492Z,985.42
2017-12-12T03:08:26.079Z,985.51
2017-12-12T03:09:26.672Z,985.55
2017-12-12T03:10:27.263Z,985.54
2017-12-12T03:11:27.862Z,985.56
2017-12-12T03:12:28.469Z,985.54
2017-12-12T03:13:29.066Z,985.64
2017-12-12T03:14:29.662Z,985.74
2017-12-12T03:15:30.253Z,985.79
2017-12-12T03:16:30.836Z,985.83
2017-12-12T03:17:31.428Z,985.83
2017-12-12T03:18:32.030Z,985.84
2017-12-12T03:19:32.630Z,985.81
2017-12-12T03:20:33.240Z,985.97
2017-12-12T03:21:33.844Z,985.90
2017-12-12T03:22:34.450Z,985.96
2017-12-12T03:23:35.050Z,986.06
2017-12-12T03:24:35.652Z,985.99
2017-12-12T03:25:36.249Z,986.08
2017-12-12T03:26:36.836Z,986.04
2017-12-12T03:27:37.433Z,986.12
2017-12-12T03:28:38.033Z,986.08
2017-12-12T03:29:38.635Z,986.23
2017-12-12T03:30:39.225Z,986.28
2017-12-12T03:31:39.813Z,986.30
2017-12-12T03:32:40.422Z,986.27
2017-12-12T03:33:41.014Z,986.30
2017-12-12T03:34:41.622Z,986.34
2017-12-12T03:35:42.220Z,986.42
2017-12-12T03:36:42.820Z,986.38
2017-12-12T03:37:43.427Z,986.46
2017-12-12T03:38:44.019Z,986.43
2017-12-12T03:39:44.621Z,986.52
2017-12-12T03:40:45.213Z,986.56
2017-12-12T03:41:45.821Z,986.59
2017-12-12T03:42:46.409Z,986.60
2017-12-12T03:43:47.010Z,986.68
2017-12-12T03:44:47.602Z,986.71
2017-12-12T03:45:48.198Z,986.76
2017-12-12T03:46:48.798Z,986.78
2017-12-12T03:47:49.386Z,986.90
2017-12-12T03:48:49.981Z,986.95
2017-12-12T03:49:50.574Z,987.02
2017-12-12T03:50:51.161Z,987.01
2017-12-12T03:51:51.761Z,987.08
2017-12-12T03:52:52.371Z,987.01
2017-12-12T03:53:52.973Z,987.13
2017-12-12T03:54:53.578Z,987.11
2017-12-12T03:55:54.179Z,987.20
2017-12-12T03:56:54.780Z,987.14
2017-12-12T03:57:55.372Z,987.27
2017-12-12T03:58:55.960Z,987.23
2017-12-12T03:59:56.560Z,987.26
2017-12-12T04:00:57.199Z,987.30
2017-12-12T04:01:57.756Z,987.36
2017-12-12T04:02:58.344Z,987.32
2017-12-12T04:03:58.934Z,987.39
2017-12-12T04:04:59.535Z,987.43
2017-12-12T04:06:00.132Z,987.41
2017-12-12T04:07:00.715Z,987.46
2017-12-12T04:08:01.313Z,987.53
2017-12-12T04:09:01.925Z,987.63
2017-12-12T04:10:02.515Z,987.65
2017-12-12T04:11:03.107Z,987.67
2017-12-12T04:12:03.699Z,987.64
2017-12-12T04:13:04.308Z,987.68
2017-12-12T04:14:04.916Z,987.80
2017-12-12T04:15:05.512Z,987.83
2017-12-12T04:16:06.106Z,987.84
2017-12-12T04:17:06.695Z,987.88
2017-12-12T04:18:07.279Z,987.88
2017-12-12T04:19:07.887Z,987.95
2017-12-12T04:20:08.490Z,988.04
2017-12-12T04:21:09.077Z,988.09
2017-12-12T04:22:09.667Z,988.15
2017-12-12T04:23:10.273Z,988.18
2017-12-12T04:24:10.862Z,988.29
2017-12-12T04:25:11.459Z,988.33
2017-12-12T04:26:12.054Z,988.41
2017-12-12T04:27:12.641Z,988.42
2017-12-12T04:28:13.302Z,988.48
2017-12-12T04:29:13.837Z,988.42
2017-12-12T04:30:14.440Z,988.51
2017-12-12T04:31:15.052Z,988.50
2017-12-12T04:32:15.652Z,988.44
2017-12-12T04:33:16.254Z,988.59
2017-12-12T04:34:16.857Z,988.59
2017-12-12T04:35:17.442Z,988.59
2017-12-12T04:36:18.036Z,988.63
2017-12-12T04:37:18.638Z,988.59
2017-12-12T04:38:19.225Z,988.68
2017-12-12T04:39:19.815Z,988.74
2017-12-12T04:40:20.410Z,988.77
2017-12-12T04:41:21.001Z,988.75
2017-12-12T04:42:21.624Z,988.75
2017-12-12T04:43:22.209Z,988.84
2017-12-12T04:44:22.799Z,988.83
2017-12-12T04:45:23.389Z,988.84
2017-12-12T04:46:23.983Z,988.91
2017-12-12T04:47:24.590Z,988.96
2017-12-12T04:48:25.199Z,989.00
2017-12-12T04:49:25.807Z,989.00
2017-12-12T04:50:26.412Z,989.04
2017-12-12T04:51:27.005Z,989.05
2017-12-12T04:52:27.613Z,989.12
2017-12-12T04:53:28.232Z,989.14
2017-12-12T04:54:28.831Z,989.13
2017-12-12T04:55:29.422Z,989.25
2017-12-12T04:56:30.012Z,989.21
2017-12-12T04:57:30.605Z,989.21
2017-12-12T04:58:31.199Z,989.27
2017-12-12T04:59:31.793Z,989.35
2017-12-12T05:00:32.491Z,989.35
2017-12-12T05:01:33.012Z,989.42
2017-12-12T05:02:33.598Z,989.37
2017-12-12T05:03:34.187Z,989.41
2017-12-12T05:04:34.778Z,989.44
2017-12-12T05:05:35.370Z,989.52
2017-12-12T05:06:35.963Z,989.52
2017-12-12T05:07:36.556Z,989.56
2017-12-12T05:08:37.166Z,989.59
2017-12-12T05:09:37.769Z,989.54
2017-12-12T05:10:38.351Z,989.66
2017-12-12T05:11:38.938Z,989.69
2017-12-12T05:12:39.530Z,989.69
2017-12-12T05:13:40.188Z,989.77
2017-12-12T05:14:40.749Z,989.74
2017-12-12T05:15:41.351Z,989.79
2017-12-12T05:16:41.944Z,989.72
2017-12-12T05:17:42.539Z,989.81
2017-12-12T05:18:43.124Z,989.92
2017-12-12T05:19:43.716Z,989.91
2017-12-12T05:20:44.316Z,989.98
2017-12-12T05:21:44.904Z,989.99
2017-12-12T05:22:45.500Z,990.00
2017-12-12T05:23:46.103Z,990.06
2017-12-12T05:24:46.697Z,990.09
2017-12-12T05:25:47.299Z,990.17
2017-12-12T05:26:47.894Z,990.12
2017-12-12T05:27:48.501Z,990.20
2017-12-12T05:28:49.111Z,990.23
2017-12-12T05:29:49.721Z,990.21
2017-12-12T05:30:50.328Z,990.28
2017-12-12T05:31:50.917Z,990.29
2017-12-12T05:32:51.518Z,990.14
2017-12-12T05:33:52.121Z,990.34
2017-12-12T05:34:52.720Z,990.34
2017-12-12T05:35:53.377Z,990.34
2017-12-12T05:36:53.930Z,990.41
2017-12-12T05:37:54.521Z,990.38
2017-12-12T05:38:55.132Z,990.46
2017-12-12T05:39:55.725Z,990.45
2017-12-12T05:40:56.326Z,990.44
2017-12-12T05:41:56.920Z,990.56
2017-12-12T05:42:57.520Z,990.54
2017-12-12T05:43:58.128Z,990.57
2017-12-12T05:44:58.735Z,990.57
2017-12-12T05:45:59.328Z,990.68
2017-12-12T05:46:59.918Z,990.78
2017-12-12T05:48:00.504Z,990.76
2017-12-12T05:49:01.090Z,990.87
2017-12-12T05:50:01.677Z,990.91
2017-12-12T05:51:02.265Z,990.91
2017-12-12T05:52:02.868Z,990.96
2017-12-12T05:53:03.464Z,990.94
2017-12-12T05:54:04.059Z,991.03
2017-12-12T05:55:04.673Z,991.05
2017-12-12T05:56:05.272Z,991.04
2017-12-12T05:57:05.873Z,991.05
2017-12-12T05:58:06.482Z,991.16
2017-12-12T05:59:07.089Z,991.21
2017-12-12T06:00:07.694Z,991.26
2017-12-12T06:01:08.287Z,991.21
2017-12-12T06:02:08.879Z,991.27
2017-12-12T06:03:09.486Z,991.33
2017-12-12T06:04:10.083Z,991.36
2017-12-12T06:05:10.694Z,991.40
2017-12-12T06:06:11.292Z,991.38
2017-12-12T06:07:11.897Z,991.44
2017-12-12T06:08:12.492Z,991.48
2017-12-12T06:09:13.076Z,991.44
2017-12-12T06:10:13.683Z,991.51
2017-12-12T06:11:14.295Z,991.49
2017-12-12T06:12:14.896Z,991.51
2017-12-12T06:13:15.489Z,991.53
2017-12-12T06:14:16.111Z,991.57
2017-12-12T06:15:16.681Z,991.61
2017-12-12T06:16:17.282Z,991.64
2017-12-12T06:17:17.871Z,991.66
2017-12-12T06:18:18.474Z,991.78
2017-12-12T06:19:19.082Z,991.73
2017-12-12T06:20:19.677Z,991.77
2017-12-12T06:21:20.283Z,991.74
2017-12-12T06:22:20.866Z,991.82
2017-12-12T06:23:21.465Z,991.88
2017-12-12T06:24:22.057Z,991.86
2017-12-12T06:25:22.650Z,991.92
2017-12-12T06:26:23.246Z,991.98
2017-12-12T06:27:23.832Z,991.98
2017-12-12T06:28:24.435Z,992.02
2017-12-12T06:29:25.024Z,992.01
2017-12-12T06:30:25.627Z,992.04
2017-12-12T06:31:26.227Z,992.09
2017-12-12T06:32:26.828Z,992.16
2017-12-12T06:33:27.435Z,992.14
2017-12-12T06:34:28.070Z,992.18
2017-12-12T06:35:28.604Z,992.19
2017-12-12T06:36:29.204Z,992.18
2017-12-12T06:37:29.821Z,992.19
2017-12-12T06:38:30.415Z,992.19
2017-12-12T06:39:31.011Z,992.22
2017-12-12T06:40:31.608Z,992.19
2017-12-12T06:41:32.198Z,992.18
2017-12-12T06:42:32.788Z,992.21
2017-12-12T06:43:33.375Z,992.23
2017-12-12T06:44:33.967Z,992.30
2017-12-12T06:45:34.554Z,992.33
2017-12-12T06:46:35.149Z,992.35
2017-12-12T06:47:35.736Z,992.44
2017-12-12T06:48:36.336Z,992.49
2017-12-12T06:49:36.946Z,992.52
2017-12-12T06:50:37.562Z,992.50
2017-12-12T06:51:38.167Z,992.54
2017-12-12T06:52:38.753Z,992.56
2017-12-12T06:53:39.346Z,992.61
2017-12-12T06:54:39.945Z,992.67
2017-12-12T06:55:40.531Z,992.57
2017-12-12T06:56:41.132Z,992.62
2017-12-12T06:57:41.731Z,992.65
2017-12-12T06:58:42.322Z,992.66
2017-12-12T06:59:42.920Z,992.67
2017-12-12T07:00:43.528Z,992.72
2017-12-12T07:01:44.142Z,992.71
2017-12-12T07:02:44.727Z,992.69
2017-12-12T07:03:45.323Z,992.69
2017-12-12T07:04:45.924Z,992.76
2017-12-12T07:05:46.527Z,992.71
2017-12-12T07:06:47.126Z,992.72
2017-12-12T07:07:47.723Z,992.74
2017-12-12T07:08:48.383Z,992.76
2017-12-12T07:09:48.938Z,992.83
2017-12-12T07:10:49.533Z,992.84
2017-12-12T07:11:50.127Z,992.90
2017-12-12T07:12:50.753Z,992.91
2017-12-12T07:13:51.349Z,992.96
2017-12-12T07:14:51.959Z,993.02
2017-12-12T07:15:52.559Z,993.05
2017-12-12T07:16:53.169Z,993.07
2017-12-12T07:17:53.766Z,993.10
2017-12-12T07:18:54.359Z,993.11
2017-12-12T07:19:54.964Z,993.15
2017-12-12T07:20:55.567Z,993.19
2017-12-12T07:21:56.222Z,993.23
2017-12-12T07:22:56.816Z,993.14
2017-12-12T07:23:57.425Z,993.20
2017-12-12T07:24:58.026Z,993.22
2017-12-12T07:25:58.631Z,993.25
2017-12-12T07:26:59.220Z,993.32
2017-12-12T07:27:59.816Z,993.37
2017-12-12T07:29:00.406Z,993.40
2017-12-12T07:30:01.013Z,993.43
2017-12-12T07:31:01.623Z,993.46
2017-12-12T07:32:02.214Z,993.50
2017-12-12T07:33:02.821Z,993.49
2017-12-12T07:34:03.418Z,993.52
2017-12-12T07:35:04.019Z,993.58
2017-12-12T07:36:04.618Z,993.65
2017-12-12T07:37:05.224Z,993.72
2017-12-12T07:38:05.835Z,993.79
2017-12-12T07:39:06.432Z,993.77
2017-12-12T07:40:07.017Z,993.71
2017-12-12T07:41:07.606Z,993.76
2017-12-12T07:42:08.203Z,993.77
2017-12-12T07:43:08.813Z,993.83
2017-12-12T07:44:09.408Z,993.86
2017-12-12T07:45:10.010Z,993.85
2017-12-12T07:46:10.625Z,993.88
2017-12-12T07:47:11.238Z,993.92
2017-12-12T07:48:11.842Z,993.92
2017-12-12T07:49:12.492Z,993.86
2017-12-12T07:50:13.073Z,993.96
2017-12-12T07:51:13.674Z,993.88
2017-12-12T07:52:14.283Z,994.02
2017-12-12T07:53:14.966Z,994.03
2017-12-12T07:54:15.527Z,994.03
2017-12-12T07:55:16.139Z,994.11
2017-12-12T07:56:16.760Z,994.05
2017-12-12T07:57:17.376Z,994.05
2017-12-12T07:58:18.009Z,994.10
2017-12-12T07:59:18.607Z,994.14
2017-12-12T08:00:19.192Z,994.16
2017-12-12T08:01:19.807Z,994.14
2017-12-12T08:02:20.425Z,994.23
2017-12-12T08:03:21.061Z,994.22
2017-12-12T08:04:21.680Z,994.25
2017-12-12T08:05:22.293Z,994.32
2017-12-12T08:06:23.017Z,994.39
2017-12-12T08:07:23.634Z,994.41
2017-12-12T08:08:24.209Z,994.36
2017-12-12T08:09:24.822Z,994.46
2017-12-12T08:10:25.434Z,994.46
2017-12-12T08:11:26.087Z,994.38
2017-12-12T08:12:26.669Z,994.55
2017-12-12T08:13:27.260Z,994.52
2017-12-12T08:14:27.868Z,994.56
2017-12-12T08:15:28.452Z,994.52
2017-12-12T08:16:29.065Z,994.47
2017-12-12T08:17:29.654Z,994.53
2017-12-12T08:18:30.263Z,994.49
2017-12-12T08:19:30.885Z,994.55
2017-12-12T08:20:31.493Z,994.59
2017-12-12T08:21:32.102Z,994.68
2017-12-12T08:22:32.712Z,994.61
2017-12-12T08:23:33.326Z,994.68
2017-12-12T08:24:33.942Z,994.74
2017-12-12T08:25:34.552Z,994.74
2017-12-12T08:26:35.156Z,994.70
2017-12-12T08:27:35.758Z,994.76
2017-12-12T08:28:36.351Z,994.77
2017-12-12T08:29:36.951Z,994.83
2017-12-12T08:30:37.561Z,994.87
2017-12-12T08:31:38.158Z,994.86
2017-12-12T08:32:38.780Z,994.87
2017-12-12T08:33:39.368Z,994.87
2017-12-12T08:34:39.969Z,994.98
2017-12-12T08:35:40.579Z,994.95
2017-12-12T08:36:41.190Z,995.00
2017-12-12T08:37:41.797Z,994.95
2017-12-12T08:38:42.422Z,994.98
2017-12-12T08:39:43.054Z,995.04
2017-12-12T08:40:43.666Z,995.07
2017-12-12T08:41:44.399Z,995.04
2017-12-12T08:42:45.080Z,995.09
2017-12-12T08:43:45.770Z,995.06
2017-12-12T08:44:46.366Z,995.11
2017-12-12T08:45:47.005Z,995.15
2017-12-12T08:46:47.600Z,995.11
2017-12-12T08:47:48.249Z,995.20
2017-12-12T08:48:48.832Z,995.28
2017-12-12T08:49:49.504Z,995.32
2017-12-12T08:50:50.359Z,995.36
2017-12-12T08:51:51.056Z,995.41
2017-12-12T08:52:52.715Z,995.45
2017-12-12T08:53:53.296Z,995.46
2017-12-12T08:54:54.026Z,995.44
2017-12-12T08:55:54.657Z,995.47
2017-12-12T08:56:55.276Z,995.42
2017-12-12T08:57:55.894Z,995.37
2017-12-12T08:58:56.515Z,995.53
2017-12-12T08:59:57.124Z,995.47
2017-12-12T09:00:57.721Z,995.59
2017-12-12T09:01:58.341Z,995.56
2017-12-12T09:02:58.948Z,995.62
2017-12-12T09:03:59.558Z,995.59
2017-12-12T09:05:00.172Z,995.72
2017-12-12T09:06:00.783Z,995.69
2017-12-12T09:07:01.379Z,995.78
2017-12-12T09:08:01.982Z,995.84
2017-12-12T09:09:02.602Z,995.88
2017-12-12T09:10:03.218Z,995.87
2017-12-12T09:11:03.823Z,995.83
2017-12-12T09:12:04.454Z,995.81
2017-12-12T09:13:05.059Z,995.85
2017-12-12T09:14:05.661Z,995.88
2017-12-12T09:15:06.285Z,995.90
2017-12-12T09:16:06.909Z,996.01
2017-12-12T09:17:07.534Z,996.00
2017-12-12T09:18:08.160Z,996.02
2017-12-12T09:19:08.784Z,996.05
2017-12-12T09:20:09.403Z,996.10
2017-12-12T09:21:10.014Z,996.09
2017-12-12T09:22:10.627Z,996.11
2017-12-12T09:23:11.231Z,996.11
2017-12-12T09:24:11.874Z,996.09
2017-12-12T09:25:12.555Z,996.17
2017-12-12T09:26:13.156Z,996.17
2017-12-12T09:27:13.779Z,996.20
2017-12-12T09:28:14.388Z,996.27
2017-12-12T09:29:14.984Z,996.26
2017-12-12T09:30:15.595Z,996.25
2017-12-12T09:31:16.212Z,996.31
2017-12-12T09:32:17.056Z,996.30
2017-12-12T09:33:17.677Z,996.30
2017-12-12T09:34:18.290Z,996.33
2017-12-12T09:35:18.918Z,996.36
2017-12-12T09:36:19.539Z,996.35
2017-12-12T09:37:20.175Z,996.34
2017-12-12T09:38:20.779Z,996.38
2017-12-12T09:39:21.379Z,996.43
2017-12-12T09:40:21.989Z,996.42
2017-12-12T09:41:22.616Z,996.53
2017-12-12T09:42:23.282Z,996.43
2017-12-12T09:43:23.838Z,996.60
2017-12-12T09:44:24.484Z,996.50
2017-12-12T09:45:25.093Z,996.59
2017-12-12T09:46:25.712Z,996.67
2017-12-12T09:47:26.338Z,996.64
2017-12-12T09:48:26.968Z,996.66
2017-12-12T09:49:27.562Z,996.68
2017-12-12T09:50:28.179Z,996.67
2017-12-12T09:51:28.790Z,996.70
2017-12-12T09:52:29.396Z,996.71
2017-12-12T09:53:30.007Z,996.75
2017-12-12T09:54:30.607Z,996.74
2017-12-12T09:55:31.230Z,996.72
2017-12-12T09:56:31.852Z,996.72
2017-12-12T09:57:32.476Z,996.73
2017-12-12T09:58:33.090Z,996.79
2017-12-12T09:59:33.697Z,996.80
2017-12-12T10:00:34.306Z,996.85
2017-12-12T10:01:35.065Z,996.82
2017-12-12T10:02:35.692Z,996.81
2017-12-12T10:03:36.326Z,996.86
2017-12-12T10:04:36.950Z,996.91
2017-12-12T10:05:37.574Z,996.96
2017-12-12T10:06:38.208Z,996.91
2017-12-12T10:07:38.844Z,996.89
2017-12-12T10:08:39.467Z,996.99
2017-12-12T10:09:40.082Z,996.89
2017-12-12T10:10:40.699Z,996.97
2017-12-12T10:11:41.328Z,996.90
2017-12-12T10:12:41.959Z,997.00
2017-12-12T10:13:42.581Z,996.94
2017-12-12T10:14:43.255Z,996.78
2017-12-12T10:15:43.828Z,996.99
2017-12-12T10:16:44.431Z,997.00
2017-12-12T10:17:45.026Z,997.00
2017-12-12T10:18:45.642Z,997.02
2017-12-12T10:19:46.273Z,997.00
2017-12-12T10:20:46.903Z,997.02
2017-12-12T10:21:47.539Z,997.04
2017-12-12T10:22:48.162Z,997.06
2017-12-12T10:23:48.780Z,997.14
2017-12-12T10:24:49.382Z,997.17
2017-12-12T10:25:49.991Z,997.05
2017-12-12T10:26:50.596Z,997.15
2017-12-12T10:27:51.202Z,997.18
2017-12-12T10:28:51.836Z,997.24
2017-12-12T10:29:52.446Z,997.22
2017-12-12T10:30:53.067Z,997.24
2017-12-12T10:31:53.683Z,997.21
2017-12-12T10:32:54.286Z,997.22
2017-12-12T10:33:54.896Z,997.20
2017-12-12T10:34:55.507Z,997.24
2017-12-12T10:35:56.130Z,997.27
2017-12-12T10:36:56.726Z,997.28
2017-12-12T10:37:57.334Z,997.30
2017-12-12T10:38:57.936Z,997.30
2017-12-12T10:39:58.571Z,997.24
2017-12-12T10:40:59.159Z,997.25
2017-12-12T10:41:59.768Z,997.26
2017-12-12T10:43:00.370Z,997.27
2017-12-12T10:44:01.057Z,997.32
2017-12-12T10:45:02.057Z,997.28
2017-12-12T10:46:02.714Z,997.35
2017-12-12T10:47:03.470Z,997.34
2017-12-12T10:48:04.093Z,997.41
2017-12-12T10:49:04.706Z,997.42
2017-12-12T10:50:05.316Z,997.39
2017-12-12T10:51:05.957Z,997.48
2017-12-12T10:52:06.561Z,997.41
2017-12-12T10:53:07.183Z,997.43
2017-12-12T10:54:07.799Z,997.46
2017-12-12T10:55:08.401Z,997.47
2017-12-12T10:56:09.026Z,997.47
2017-12-12T10:57:09.652Z,997.50
2017-12-12T10:58:10.280Z,997.55
2017-12-12T10:59:10.910Z,997.59
2017-12-12T11:00:11.520Z,997.68
2017-12-12T11:01:12.149Z,997.70
2017-12-12T11:02:12.782Z,997.67
2017-12-12T11:03:13.395Z,997.73
2017-12-12T11:04:14.029Z,997.73
2017-12-12T11:05:14.652Z,997.71
2017-12-12T11:06:15.260Z,997.81
2017-12-12T11:07:15.867Z,997.79
2017-12-12T11:08:16.479Z,997.86
2017-12-12T11:09:17.105Z,997.88
2017-12-12T11:10:17.730Z,997.89
2017-12-12T11:11:18.362Z,997.97
2017-12-12T11:12:18.964Z,997.89
2017-12-12T11:13:19.791Z,997.90
2017-12-12T11:14:20.402Z,997.95
2017-12-12T11:15:21.032Z,997.98
2017-12-12T11:16:21.673Z,997.92
2017-12-12T11:17:22.735Z,997.98
2017-12-12T11:18:23.370Z,997.99
2017-12-12T11:19:24.005Z,998.02
2017-12-12T11:20:24.659Z,998.06
2017-12-12T11:21:25.268Z,998.03
2017-12-12T11:22:25.902Z,998.05
2017-12-12T11:23:26.548Z,998.03
2017-12-12T11:24:27.434Z,998.05
2017-12-12T11:25:28.318Z,998.05
2017-12-12T11:26:28.969Z,998.09
2017-12-12T11:27:29.582Z,998.09
2017-12-12T11:28:30.426Z,998.07
2017-12-12T11:29:31.045Z,998.12
2017-12-12T11:30:31.648Z,998.15
2017-12-12T11:31:32.262Z,998.16
2017-12-12T11:32:32.919Z,998.14
2017-12-12T11:33:33.530Z,998.20
2017-12-12T11:34:34.151Z,998.22
2017-12-12T11:35:34.774Z,998.21
2017-12-12T11:36:35.402Z,998.25
2017-12-12T11:37:36.024Z,998.22
2017-12-12T11:38:36.664Z,998.30
2017-12-12T11:39:37.278Z,998.26
2017-12-12T11:40:37.920Z,998.23
2017-12-12T11:41:38.536Z,998.27
2017-12-12T11:42:39.170Z,998.24
2017-12-12T11:43:39.790Z,998.27
2017-12-12T11:44:40.618Z,998.30
2017-12-12T11:45:41.443Z,998.30
2017-12-12T11:46:42.076Z,998.29
2017-12-12T11:47:42.939Z,998.32
2017-12-12T11:48:43.796Z,998.33
2017-12-12T11:49:44.425Z,998.36
2017-12-12T11:50:45.030Z,998.37
2017-12-12T11:51:45.652Z,998.41
2017-12-12T11:52:46.283Z,998.44
2017-12-12T11:53:46.909Z,998.46
2017-12-12T11:54:48.734Z,998.46
2017-12-12T11:55:49.360Z,998.51
2017-12-12T11:56:49.998Z,998.50
2017-12-12T11:57:50.629Z,998.46
2017-12-12T11:58:51.252Z,998.57
2017-12-12T11:59:52.080Z,998.55
2017-12-12T12:00:52.710Z,998.56
2017-12-12T12:01:53.354Z,998.62
2017-12-12T12:02:53.966Z,998.54
2017-12-12T12:03:54.611Z,998.56
2017-12-12T12:04:55.261Z,998.60
2017-12-12T12:05:55.910Z,998.56
2017-12-12T12:06:56.575Z,998.61
2017-12-12T12:07:57.212Z,998.68
2017-12-12T12:08:58.821Z,998.64
2017-12-12T12:09:59.639Z,998.67
2017-12-12T12:11:00.249Z,998.67
2017-12-12T12:12:00.861Z,998.69
2017-12-12T12:13:01.496Z,998.67
2017-12-12T12:14:02.136Z,998.72
2017-12-12T12:15:02.779Z,998.76
2017-12-12T12:16:03.649Z,998.75
2017-12-12T12:17:04.288Z,998.73
2017-12-12T12:18:04.937Z,998.76
2017-12-12T12:19:05.575Z,998.76
2017-12-12T12:20:06.195Z,998.77
2017-12-12T12:21:06.833Z,998.72
2017-12-12T12:22:07.463Z,998.79
2017-12-12T12:23:08.098Z,998.71
2017-12-12T12:24:08.930Z,998.77
2017-12-12T12:25:09.529Z,998.78
2017-12-12T12:26:10.140Z,998.78
2017-12-12T12:27:10.899Z,998.81
2017-12-12T12:28:11.532Z,998.84
2017-12-12T12:29:12.170Z,998.84
2017-12-12T12:30:12.915Z,998.85
2017-12-12T12:31:13.547Z,998.88
2017-12-12T12:32:14.179Z,998.91
2017-12-12T12:33:14.826Z,998.87
2017-12-12T12:34:15.448Z,998.92
2017-12-12T12:35:16.078Z,998.90
2017-12-12T12:36:16.722Z,998.91
2017-12-12T12:37:17.328Z,998.93